Main page
METAR-TAF:

METAR-TAF

Airports :

Parnaíba-Prefeito Dr. João Silva Filho International Airport

Parnaíba, Piauí, Brazil

latitude: 02-55S, longitude: 041-45W, elevation: 5 m

Current weather observation

The report was made 8 hours and 3 minutes ago, at 21:45 UTC
Wind 17 kt from the East
Temperature 28°C
Humidity 62%
Pressure 1008 hPa
Visibility 10 km or more
no clouds below 1500 m and no cumulonimbus

METAR: SBPB 122145Z 10017KT CAVOK 28/20 Q1008

Time: 02:48 (05:48 UTC)

Forecast

The report was made 19 hours and 48 minutes ago, at 10:00 UTC
Forecast valid from 12 at 12 UTC to 13 at 12 UTC
Wind 20 kt from the East/Northeast
Visibility 10 km or more
Scattered clouds at a height of 2000 ft
Becoming
from 13 at 00 UTC to 13 at 02 UTC
Wind 15 kt from the East/Southeast

TAF: SBPB 121000Z 1212/1312 07020KT 9999 SCT020 TX33/1214Z TN28/1321Z BECMG 1300/1302 11015KT RMK PEA

Weather observations and forecasts of more than 4000 airports (METAR and TAF reports).

The available stations are represented by yellow and red dots on the map.

Hover mouse over dot to see the name of the station.

Then click to see weather observations and forecasts.

To change the map : click on the green buttons with a black cross to zoom in, on the green button with a dash to zoom out, or on the green arrows for adjacent maps.


METAR-TAF: